sensor_id;sensor_type;location;lat;lon;timestamp;pressure;altitude;pressure_sealevel;temperature;humidity
17785;BME280;9016;53.582;10.062;2023-04-28T00:00:53;101795.41;;;9.33;63.69
17785;BME280;9016;53.582;10.062;2023-04-28T00:03:21;101793.59;;;9.33;63.86
17785;BME280;9016;53.582;10.062;2023-04-28T00:05:51;101784.84;;;9.30;64.35
17785;BME280;9016;53.582;10.062;2023-04-28T00:08:19;101783.94;;;9.31;63.48
17785;BME280;9016;53.582;10.062;2023-04-28T00:10:49;101788.13;;;9.15;64.25
17785;BME280;9016;53.582;10.062;2023-04-28T00:13:17;101789.69;;;9.20;64.09
17785;BME280;9016;53.582;10.062;2023-04-28T00:15:45;101789.69;;;9.20;64.14
17785;BME280;9016;53.582;10.062;2023-04-28T00:18:14;101783.94;;;9.08;63.98
17785;BME280;9016;53.582;10.062;2023-04-28T00:20:42;101773.19;;;9.11;63.87
17785;BME280;9016;53.582;10.062;2023-04-28T00:23:10;101772.72;;;9.23;63.87
17785;BME280;9016;53.582;10.062;2023-04-28T00:25:38;101776.59;;;9.14;63.92
17785;BME280;9016;53.582;10.062;2023-04-28T00:28:06;101772.31;;;9.10;64.00
17785;BME280;9016;53.582;10.062;2023-04-28T00:30:34;101772.81;;;8.96;64.28
17785;BME280;9016;53.582;10.062;2023-04-28T00:33:02;101774.03;;;8.88;65.29
17785;BME280;9016;53.582;10.062;2023-04-28T00:35:31;101775.00;;;8.85;64.76
17785;BME280;9016;53.582;10.062;2023-04-28T00:37:59;101757.75;;;8.74;65.10
17785;BME280;9016;53.582;10.062;2023-04-28T00:40:32;101763.47;;;8.86;64.20
17785;BME280;9016;53.582;10.062;2023-04-28T00:43:00;101764.44;;;8.84;64.72
17785;BME280;9016;53.582;10.062;2023-04-28T00:45:29;101755.91;;;8.76;64.56
17785;BME280;9016;53.582;10.062;2023-04-28T00:47:58;101767.28;;;8.79;64.19
17785;BME280;9016;53.582;10.062;2023-04-28T00:50:27;101753.28;;;8.74;64.83
17785;BME280;9016;53.582;10.062;2023-04-28T00:52:57;101751.16;;;8.61;64.66
17785;BME280;9016;53.582;10.062;2023-04-28T00:55:26;101751.16;;;8.61;65.20
17785;BME280;9016;53.582;10.062;2023-04-28T00:57:58;101746.78;;;8.58;64.89
17785;BME280;9016;53.582;10.062;2023-04-28T01:00:26;101752.56;;;8.46;64.94
17785;BME280;9016;53.582;10.062;2023-04-28T01:02:56;101748.06;;;8.48;65.81
17785;BME280;9016;53.582;10.062;2023-04-28T01:05:25;101750.25;;;8.36;65.89
17785;BME280;9016;53.582;10.062;2023-04-28T01:07:53;101753.66;;;8.41;66.00
17785;BME280;9016;53.582;10.062;2023-04-28T01:10:22;101749.56;;;8.31;66.59
17785;BME280;9016;53.582;10.062;2023-04-28T01:12:51;101744.91;;;8.37;65.71
17785;BME280;9016;53.582;10.062;2023-04-28T01:15:19;101751.88;;;8.40;66.52
17785;BME280;9016;53.582;10.062;2023-04-28T01:17:47;101740.44;;;8.38;65.73
17785;BME280;9016;53.582;10.062;2023-04-28T01:20:15;101742.22;;;8.39;65.23
17785;BME280;9016;53.582;10.062;2023-04-28T01:22:43;101744.91;;;8.37;65.35
17785;BME280;9016;53.582;10.062;2023-04-28T01:25:13;101735.38;;;8.32;65.94
17785;BME280;9016;53.582;10.062;2023-04-28T01:27:41;101731.31;;;8.20;65.56
17785;BME280;9016;53.582;10.062;2023-04-28T01:30:09;101736.50;;;8.23;66.45
17785;BME280;9016;53.582;10.062;2023-04-28T01:32:37;101728.56;;;8.23;65.92
17785;BME280;9016;53.582;10.062;2023-04-28T01:35:06;101733.56;;;8.32;65.60
17785;BME280;9016;53.582;10.062;2023-04-28T01:37:34;101726.84;;;8.22;65.97
17785;BME280;9016;53.582;10.062;2023-04-28T01:40:02;101733.22;;;8.17;66.29
17785;BME280;9016;53.582;10.062;2023-04-28T01:42:32;101732.19;;;8.21;66.43
17785;BME280;9016;53.582;10.062;2023-04-28T01:45:00;101719.72;;;8.24;65.78
17785;BME280;9016;53.582;10.062;2023-04-28T01:47:29;101723.56;;;8.14;66.97
17785;BME280;9016;53.582;10.062;2023-04-28T01:49:57;101729.94;;;8.09;65.70
17785;BME280;9016;53.582;10.062;2023-04-28T01:52:26;101722.94;;;8.06;66.98
17785;BME280;9016;53.582;10.062;2023-04-28T01:54:54;101719.34;;;8.09;66.49
17785;BME280;9016;53.582;10.062;2023-04-28T01:57:22;101717.94;;;7.98;66.35
17785;BME280;9016;53.582;10.062;2023-04-28T01:59:52;101717.81;;;8.01;66.38
17785;BME280;9016;53.582;10.062;2023-04-28T02:02:20;101716.94;;;8.01;66.47
17785;BME280;9016;53.582;10.062;2023-04-28T02:04:48;101716.75;;;8.07;66.38
17785;BME280;9016;53.582;10.062;2023-04-28T02:07:16;101708.84;;;8.06;66.03
17785;BME280;9016;53.582;10.062;2023-04-28T02:09:44;101702.66;;;8.05;66.25
17785;BME280;9016;53.582;10.062;2023-04-28T02:12:12;101705.50;;;7.99;66.84
17785;BME280;9016;53.582;10.062;2023-04-28T02:14:40;101701.19;;;7.96;66.63
17785;BME280;9016;53.582;10.062;2023-04-28T02:17:09;101692.16;;;8.02;66.25
17785;BME280;9016;53.582;10.062;2023-04-28T02:19:37;101696.72;;;7.97;65.92
17785;BME280;9016;53.582;10.062;2023-04-28T02:22:05;101698.63;;;7.93;65.53
17785;BME280;9016;53.582;10.062;2023-04-28T02:24:34;101696.84;;;7.94;66.48
17785;BME280;9016;53.582;10.062;2023-04-28T02:27:04;101698.63;;;7.93;66.12
17785;BME280;9016;53.582;10.062;2023-04-28T02:29:32;101687.91;;;7.96;66.28
17785;BME280;9016;53.582;10.062;2023-04-28T02:32:00;101689.03;;;7.89;66.04
17785;BME280;9016;53.582;10.062;2023-04-28T02:34:30;101690.88;;;7.87;66.19
17785;BME280;9016;53.582;10.062;2023-04-28T02:36:58;101682.06;;;7.87;66.45
17785;BME280;9016;53.582;10.062;2023-04-28T02:39:26;101680.28;;;7.87;66.11
17785;BME280;9016;53.582;10.062;2023-04-28T02:41:55;101676.19;;;7.77;66.16
17785;BME280;9016;53.582;10.062;2023-04-28T02:44:23;101672.78;;;7.74;66.78
17785;BME280;9016;53.582;10.062;2023-04-28T02:46:51;101679.91;;;7.72;66.78
17785;BME280;9016;53.582;10.062;2023-04-28T02:49:19;101674.41;;;7.52;67.44
17785;BME280;9016;53.582;10.062;2023-04-28T02:51:49;101669.81;;;7.57;67.79
17785;BME280;9016;53.582;10.062;2023-04-28T02:54:17;101664.25;;;7.64;67.37
17785;BME280;9016;53.582;10.062;2023-04-28T02:56:53;101667.28;;;7.54;66.93
17785;BME280;9016;53.582;10.062;2023-04-28T02:59:21;101652.25;;;7.53;67.13
17785;BME280;9016;53.582;10.062;2023-04-28T03:01:49;101657.38;;;7.59;66.96
17785;BME280;9016;53.582;10.062;2023-04-28T03:04:18;101653.31;;;7.49;67.09
17785;BME280;9016;53.582;10.062;2023-04-28T03:06:48;101648.06;;;7.46;67.85
17785;BME280;9016;53.582;10.062;2023-04-28T03:09:16;101643.75;;;7.43;67.18
17785;BME280;9016;53.582;10.062;2023-04-28T03:11:44;101643.28;;;7.31;68.28
17785;BME280;9016;53.582;10.062;2023-04-28T03:14:12;101636.44;;;7.24;67.96
17785;BME280;9016;53.582;10.062;2023-04-28T03:16:41;101633.72;;;7.27;67.55
17785;BME280;9016;53.582;10.062;2023-04-28T03:19:09;101627.38;;;7.31;67.47
17785;BME280;9016;53.582;10.062;2023-04-28T03:21:37;101624.81;;;7.28;67.82
17785;BME280;9016;53.582;10.062;2023-04-28T03:24:06;101624.97;;;7.23;67.83
17785;BME280;9016;53.582;10.062;2023-04-28T03:26:35;101616.00;;;7.27;66.95
17785;BME280;9016;53.582;10.062;2023-04-28T03:29:02;101606.56;;;7.19;67.39
17785;BME280;9016;53.582;10.062;2023-04-28T03:31:30;101609.75;;;7.30;67.26
17785;BME280;9016;53.582;10.062;2023-04-28T03:33:58;101617.63;;;7.31;66.95
17785;BME280;9016;53.582;10.062;2023-04-28T03:36:26;101617.75;;;7.28;67.10
17785;BME280;9016;53.582;10.062;2023-04-28T03:38:54;101610.34;;;7.12;67.11
17785;BME280;9016;53.582;10.062;2023-04-28T03:41:24;101609.84;;;7.27;66.79
17785;BME280;9016;53.582;10.062;2023-04-28T03:43:52;101606.38;;;7.25;67.20
17785;BME280;9016;53.582;10.062;2023-04-28T03:46:22;101602.91;;;7.23;66.67
17785;BME280;9016;53.582;10.062;2023-04-28T03:48:50;101601.78;;;7.30;66.08
17785;BME280;9016;53.582;10.062;2023-04-28T03:51:19;101599.19;;;7.28;66.66
17785;BME280;9016;53.582;10.062;2023-04-28T03:53:46;101595.78;;;7.25;66.69
17785;BME280;9016;53.582;10.062;2023-04-28T03:56:15;101597.94;;;7.12;67.43
17785;BME280;9016;53.582;10.062;2023-04-28T03:58:45;101591.84;;;7.10;67.22
17785;BME280;9016;53.582;10.062;2023-04-28T04:01:13;101589.19;;;7.10;67.67
17785;BME280;9016;53.582;10.062;2023-04-28T04:03:41;101591.34;;;6.97;67.42
17785;BME280;9016;53.582;10.062;2023-04-28T04:06:09;101588.09;;;6.89;67.55
17785;BME280;9016;53.582;10.062;2023-04-28T04:08:37;101590.69;;;6.91;67.56
17785;BME280;9016;53.582;10.062;2023-04-28T04:11:05;101586.59;;;6.81;67.89
17785;BME280;9016;53.582;10.062;2023-04-28T04:13:33;101585.53;;;6.86;68.39
17785;BME280;9016;53.582;10.062;2023-04-28T04:16:02;101583.47;;;6.96;67.53
17785;BME280;9016;53.582;10.062;2023-04-28T04:18:30;101570.16;;;6.97;68.04
17785;BME280;9016;53.582;10.062;2023-04-28T04:20:58;101576.16;;;7.04;68.16
17785;BME280;9016;53.582;10.062;2023-04-28T04:23:26;101572.00;;;7.22;67.17
17785;BME280;9016;53.582;10.062;2023-04-28T04:25:55;101575.16;;;7.07;67.28
17785;BME280;9016;53.582;10.062;2023-04-28T04:28:22;101571.78;;;7.01;67.12
17785;BME280;9016;53.582;10.062;2023-04-28T04:30:51;101569.09;;;7.03;66.74
17785;BME280;9016;53.582;10.062;2023-04-28T04:33:20;101565.91;;;6.93;67.20
17785;BME280;9016;53.582;10.062;2023-04-28T04:35:48;101565.69;;;6.99;67.02
17785;BME280;9016;53.582;10.062;2023-04-28T04:38:16;101565.63;;;7.01;67.55
17785;BME280;9016;53.582;10.062;2023-04-28T04:40:44;101565.47;;;7.06;66.98
17785;BME280;9016;53.582;10.062;2023-04-28T04:43:12;101564.66;;;7.03;66.95
17785;BME280;9016;53.582;10.062;2023-04-28T04:45:41;101554.56;;;7.15;66.46
17785;BME280;9016;53.582;10.062;2023-04-28T04:48:09;101560.69;;;7.17;66.20
17785;BME280;9016;53.582;10.062;2023-04-28T04:50:39;101556.34;;;7.14;66.44
17785;BME280;9016;53.582;10.062;2023-04-28T04:53:07;101553.63;;;7.17;65.81
17785;BME280;9016;53.582;10.062;2023-04-28T04:55:41;101552.44;;;7.26;65.70
17785;BME280;9016;53.582;10.062;2023-04-28T04:58:12;101550.81;;;7.22;65.18
17785;BME280;9016;53.582;10.062;2023-04-28T05:00:43;101543.88;;;7.18;66.42
17785;BME280;9016;53.582;10.062;2023-04-28T05:03:11;101541.00;;;7.24;66.05
17785;BME280;9016;53.582;10.062;2023-04-28T05:05:41;101539.13;;;7.27;64.94
17785;BME280;9016;53.582;10.062;2023-04-28T05:08:12;101532.66;;;7.36;64.75
17785;BME280;9016;53.582;10.062;2023-04-28T05:10:40;101536.06;;;7.39;63.94
17785;BME280;9016;53.582;10.062;2023-04-28T05:13:08;101534.25;;;7.41;63.75
17785;BME280;9016;53.582;10.062;2023-04-28T05:15:36;101526.88;;;7.49;63.48
17785;BME280;9016;53.582;10.062;2023-04-28T05:18:04;101523.25;;;7.52;62.71
17785;BME280;9016;53.582;10.062;2023-04-28T05:20:36;101537.53;;;7.48;62.53
17785;BME280;9016;53.582;10.062;2023-04-28T05:23:06;101532.28;;;7.46;62.45
17785;BME280;9016;53.582;10.062;2023-04-28T05:25:33;101543.13;;;7.65;62.72
17785;BME280;9016;53.582;10.062;2023-04-28T05:28:02;101535.63;;;7.76;61.82
17785;BME280;9016;53.582;10.062;2023-04-28T05:30:33;101531.56;;;7.90;61.02
17785;BME280;9016;53.582;10.062;2023-04-28T05:33:01;101518.91;;;7.97;61.32
17785;BME280;9016;53.582;10.062;2023-04-28T05:35:30;101524.00;;;8.03;60.61
17785;BME280;9016;53.582;10.062;2023-04-28T05:37:59;101518.78;;;8.25;59.55
17785;BME280;9016;53.582;10.062;2023-04-28T05:40:28;101524.50;;;8.37;59.17
17785;BME280;9016;53.582;10.062;2023-04-28T05:42:56;101519.75;;;8.45;58.99
17785;BME280;9016;53.582;10.062;2023-04-28T05:45:24;101523.50;;;8.40;58.25
17785;BME280;9016;53.582;10.062;2023-04-28T05:47:52;101513.22;;;8.54;58.62
17785;BME280;9016;53.582;10.062;2023-04-28T05:50:21;101512.94;;;8.61;57.77
17785;BME280;9016;53.582;10.062;2023-04-28T05:52:52;101506.50;;;8.67;56.65
17785;BME280;9016;53.582;10.062;2023-04-28T05:55:20;101503.16;;;8.83;56.74
17785;BME280;9016;53.582;10.062;2023-04-28T05:57:50;101503.50;;;8.96;55.86
17785;BME280;9016;53.582;10.062;2023-04-28T06:00:19;101500.34;;;9.08;56.39
17785;BME280;9016;53.582;10.062;2023-04-28T06:02:47;101508.19;;;9.11;54.96
17785;BME280;9016;53.582;10.062;2023-04-28T06:05:16;101491.13;;;9.17;54.07
17785;BME280;9016;53.582;10.062;2023-04-28T06:07:45;101494.31;;;9.25;53.03
17785;BME280;9016;53.582;10.062;2023-04-28T06:10:15;101486.66;;;9.37;55.95
17785;BME280;9016;53.582;10.062;2023-04-28T06:12:43;101486.06;;;9.51;52.46
17785;BME280;9016;53.582;10.062;2023-04-28T06:15:13;101490.50;;;9.70;51.90
17785;BME280;9016;53.582;10.062;2023-04-28T06:17:44;101495.44;;;9.98;51.49
17785;BME280;9016;53.582;10.062;2023-04-28T06:20:12;101487.16;;;10.04;50.75
17785;BME280;9016;53.582;10.062;2023-04-28T06:22:42;101492.25;;;10.10;49.19
17785;BME280;9016;53.582;10.062;2023-04-28T06:25:10;101485.63;;;10.19;49.66
17785;BME280;9016;53.582;10.062;2023-04-28T06:27:38;101484.47;;;10.24;48.41
17785;BME280;9016;53.582;10.062;2023-04-28T06:30:07;101482.88;;;10.20;48.27
17785;BME280;9016;53.582;10.062;2023-04-28T06:32:37;101477.50;;;10.40;47.81
17785;BME280;9016;53.582;10.062;2023-04-28T06:35:06;101484.75;;;10.55;48.48
17785;BME280;9016;53.582;10.062;2023-04-28T06:37:34;101490.41;;;10.66;47.38
17785;BME280;9016;53.582;10.062;2023-04-28T06:40:02;101483.09;;;10.88;47.35
17785;BME280;9016;53.582;10.062;2023-04-28T06:42:30;101483.72;;;10.76;47.10
17785;BME280;9016;53.582;10.062;2023-04-28T06:44:58;101471.53;;;11.07;48.56
17785;BME280;9016;53.582;10.062;2023-04-28T06:47:26;101470.34;;;11.29;46.38
17785;BME280;9016;53.582;10.062;2023-04-28T06:49:56;101467.22;;;11.21;44.93
17785;BME280;9016;53.582;10.062;2023-04-28T06:52:24;101462.56;;;11.91;45.42
17785;BME280;9016;53.582;10.062;2023-04-28T06:55:05;101462.72;;;13.71;41.03
17785;BME280;9016;53.582;10.062;2023-04-28T06:57:35;101455.03;;;15.03;38.87
17785;BME280;9016;53.582;10.062;2023-04-28T07:00:05;101445.91;;;14.66;38.25
17785;BME280;9016;53.582;10.062;2023-04-28T07:02:33;101435.47;;;15.40;37.83
17785;BME280;9016;53.582;10.062;2023-04-28T07:05:04;101439.47;;;15.59;36.26
17785;BME280;9016;53.582;10.062;2023-04-28T07:07:32;101441.72;;;15.78;35.47
17785;BME280;9016;53.582;10.062;2023-04-28T07:10:00;101446.50;;;16.36;35.16
17785;BME280;9016;53.582;10.062;2023-04-28T07:12:29;101441.16;;;16.83;33.73
17785;BME280;9016;53.582;10.062;2023-04-28T07:14:57;101440.13;;;17.77;32.67
17785;BME280;9016;53.582;10.062;2023-04-28T07:17:25;101429.59;;;17.85;31.70
17785;BME280;9016;53.582;10.062;2023-04-28T07:19:53;101428.59;;;18.41;30.85
17785;BME280;9016;53.582;10.062;2023-04-28T07:22:22;101417.66;;;18.32;30.66
17785;BME280;9016;53.582;10.062;2023-04-28T07:24:50;101415.72;;;18.23;30.66
17785;BME280;9016;53.582;10.062;2023-04-28T07:27:19;101422.09;;;18.87;29.94
17785;BME280;9016;53.582;10.062;2023-04-28T07:29:47;101411.56;;;19.56;28.75
17785;BME280;9016;53.582;10.062;2023-04-28T07:32:15;101412.44;;;19.66;27.97
17785;BME280;9016;53.582;10.062;2023-04-28T07:34:43;101419.22;;;19.82;28.03
17785;BME280;9016;53.582;10.062;2023-04-28T07:37:11;101407.53;;;20.41;26.69
17785;BME280;9016;53.582;10.062;2023-04-28T07:39:40;101411.41;;;20.58;26.66
17785;BME280;9016;53.582;10.062;2023-04-28T07:42:08;101405.13;;;20.96;26.52
17785;BME280;9016;53.582;10.062;2023-04-28T07:44:36;101403.00;;;21.37;26.09
17785;BME280;9016;53.582;10.062;2023-04-28T07:47:04;101406.16;;;21.98;25.18
17785;BME280;9016;53.582;10.062;2023-04-28T07:49:32;101400.47;;;21.82;25.03
17785;BME280;9016;53.582;10.062;2023-04-28T07:52:00;101410.44;;;21.26;25.75
17785;BME280;9016;53.582;10.062;2023-04-28T07:54:28;101405.72;;;21.18;25.25
17785;BME280;9016;53.582;10.062;2023-04-28T07:56:58;101398.47;;;21.84;25.37
17785;BME280;9016;53.582;10.062;2023-04-28T07:59:26;101404.19;;;21.81;24.98
17785;BME280;9016;53.582;10.062;2023-04-28T08:01:54;101407.72;;;21.45;25.66
17785;BME280;9016;53.582;10.062;2023-04-28T08:04:22;101400.94;;;22.05;25.40
17785;BME280;9016;53.582;10.062;2023-04-28T08:06:52;101394.09;;;22.01;25.05
17785;BME280;9016;53.582;10.062;2023-04-28T08:09:20;101397.25;;;22.06;24.92
17785;BME280;9016;53.582;10.062;2023-04-28T08:11:48;101395.53;;;22.05;24.75
17785;BME280;9016;53.582;10.062;2023-04-28T08:14:19;101400.47;;;21.07;25.30
17785;BME280;9016;53.582;10.062;2023-04-28T08:16:47;101396.31;;;20.84;25.81
17785;BME280;9016;53.582;10.062;2023-04-28T08:19:15;101392.41;;;20.48;26.30
17785;BME280;9016;53.582;10.062;2023-04-28T08:21:43;101389.84;;;20.07;26.67
17785;BME280;9016;53.582;10.062;2023-04-28T08:24:11;101386.31;;;19.77;26.98
17785;BME280;9016;53.582;10.062;2023-04-28T08:26:39;101384.97;;;19.00;27.70
17785;BME280;9016;53.582;10.062;2023-04-28T08:29:07;101379.44;;;18.69;28.38
17785;BME280;9016;53.582;10.062;2023-04-28T08:31:37;101382.78;;;18.62;28.93
17785;BME280;9016;53.582;10.062;2023-04-28T08:34:05;101380.38;;;18.37;29.19
17785;BME280;9016;53.582;10.062;2023-04-28T08:36:33;101378.38;;;18.61;28.89
17785;BME280;9016;53.582;10.062;2023-04-28T08:39:01;101378.41;;;18.50;29.23
17785;BME280;9016;53.582;10.062;2023-04-28T08:41:31;101380.63;;;18.45;29.04
17785;BME280;9016;53.582;10.062;2023-04-28T08:43:59;101380.59;;;18.34;29.50
17785;BME280;9016;53.582;10.062;2023-04-28T08:46:27;101376.81;;;18.79;29.02
17785;BME280;9016;53.582;10.062;2023-04-28T08:49:00;101377.44;;;18.29;29.35
17785;BME280;9016;53.582;10.062;2023-04-28T08:51:32;101385.69;;;18.05;29.29
17785;BME280;9016;53.582;10.062;2023-04-28T08:54:01;101374.81;;;17.73;30.20
17785;BME280;9016;53.582;10.062;2023-04-28T08:56:51;101386.03;;;17.00;31.07
17785;BME280;9016;53.582;10.062;2023-04-28T08:59:19;101380.16;;;16.95;31.45
17785;BME280;9016;53.582;10.062;2023-04-28T09:01:48;101374.44;;;16.75;31.81
17785;BME280;9016;53.582;10.062;2023-04-28T09:04:18;101370.09;;;16.86;32.24
17785;BME280;9016;53.582;10.062;2023-04-28T09:06:47;101360.63;;;17.15;31.76
17785;BME280;9016;53.582;10.062;2023-04-28T09:09:20;101363.03;;;17.52;31.51
17785;BME280;9016;53.582;10.062;2023-04-28T09:11:55;101362.00;;;17.42;31.44
17785;BME280;9016;53.582;10.062;2023-04-28T09:14:26;101356.50;;;17.33;31.75
17785;BME280;9016;53.582;10.062;2023-04-28T09:16:54;101349.03;;;17.36;31.74
17785;BME280;9016;53.582;10.062;2023-04-28T09:19:24;101352.50;;;17.04;32.10
17785;BME280;9016;53.582;10.062;2023-04-28T09:21:59;101360.41;;;16.83;32.58
17785;BME280;9016;53.582;10.062;2023-04-28T09:24:37;101356.59;;;16.74;32.68
17785;BME280;9016;53.582;10.062;2023-04-28T09:27:07;101352.22;;;16.37;33.02
17785;BME280;9016;53.582;10.062;2023-04-28T09:29:38;101347.84;;;16.00;33.78
17785;BME280;9016;53.582;10.062;2023-04-28T09:32:13;101346.56;;;15.93;34.06
17785;BME280;9016;53.582;10.062;2023-04-28T09:34:44;101337.22;;;16.22;34.07
17785;BME280;9016;53.582;10.062;2023-04-28T09:37:15;101334.53;;;16.22;34.26
17785;BME280;9016;53.582;10.062;2023-04-28T09:39:44;101339.63;;;16.38;33.87
17785;BME280;9016;53.582;10.062;2023-04-28T09:42:30;101329.53;;;16.05;33.88
17785;BME280;9016;53.582;10.062;2023-04-28T09:44:59;101342.66;;;16.10;34.64
17785;BME280;9016;53.582;10.062;2023-04-28T09:47:29;101331.66;;;16.49;33.96
17785;BME280;9016;53.582;10.062;2023-04-28T09:50:01;101337.66;;;16.40;34.22
17785;BME280;9016;53.582;10.062;2023-04-28T09:52:29;101339.22;;;16.31;33.95
17785;BME280;9016;53.582;10.062;2023-04-28T09:55:01;101330.63;;;16.73;33.67
17785;BME280;9016;53.582;10.062;2023-04-28T09:57:31;101329.19;;;16.80;33.85
17785;BME280;9016;53.582;10.062;2023-04-28T09:59:59;101327.25;;;16.94;33.79
17785;BME280;9016;53.582;10.062;2023-04-28T10:02:28;101317.38;;;17.05;33.64
17785;BME280;9016;53.582;10.062;2023-04-28T10:05:11;101313.63;;;17.30;33.34
17785;BME280;9016;53.582;10.062;2023-04-28T10:07:39;101306.34;;;17.54;33.22
17785;BME280;9016;53.582;10.062;2023-04-28T10:10:08;101302.16;;;17.61;32.60
17785;BME280;9016;53.582;10.062;2023-04-28T10:12:37;101307.75;;;17.36;33.03
17785;BME280;9016;53.582;10.062;2023-04-28T10:15:07;101294.81;;;17.74;33.40
17785;BME280;9016;53.582;10.062;2023-04-28T10:17:37;101294.19;;;17.37;32.77
17785;BME280;9016;53.582;10.062;2023-04-28T10:20:07;101285.97;;;17.28;33.90
17785;BME280;9016;53.582;10.062;2023-04-28T10:22:48;101288.41;;;17.20;32.99
17785;BME280;9016;53.582;10.062;2023-04-28T10:25:25;101278.00;;;17.26;32.96
17785;BME280;9016;53.582;10.062;2023-04-28T10:27:53;101280.16;;;16.99;33.60
17785;BME280;9016;53.582;10.062;2023-04-28T10:30:23;101288.31;;;16.75;33.83
17785;BME280;9016;53.582;10.062;2023-04-28T10:33:23;101276.69;;;16.75;33.94
17785;BME280;9016;53.582;10.062;2023-04-28T10:35:53;101273.34;;;16.60;34.35
17785;BME280;9016;53.582;10.062;2023-04-28T10:38:22;101275.91;;;16.62;34.46
17785;BME280;9016;53.582;10.062;2023-04-28T10:40:50;101261.34;;;16.53;34.30
17785;BME280;9016;53.582;10.062;2023-04-28T10:43:35;101256.41;;;16.82;34.32
17785;BME280;9016;53.582;10.062;2023-04-28T10:46:06;101248.34;;;16.93;34.05
17785;BME280;9016;53.582;10.062;2023-04-28T10:49:04;101248.84;;;17.20;33.53
17785;BME280;9016;53.582;10.062;2023-04-28T10:51:33;101247.88;;;17.32;33.43
17785;BME280;9016;53.582;10.062;2023-04-28T10:54:14;101241.13;;;17.38;33.63
17785;BME280;9016;53.582;10.062;2023-04-28T10:57:19;101244.84;;;17.48;33.73
17785;BME280;9016;53.582;10.062;2023-04-28T10:59:50;101245.78;;;17.47;33.09
17785;BME280;9016;53.582;10.062;2023-04-28T11:02:40;101244.19;;;17.44;33.38
17785;BME280;9016;53.582;10.062;2023-04-28T11:05:15;101245.28;;;17.09;33.79
17785;BME280;9016;53.582;10.062;2023-04-28T11:11:20;101236.13;;;17.33;33.90
17785;BME280;9016;53.582;10.062;2023-04-28T11:13:50;101237.00;;;17.56;33.61
17785;BME280;9016;53.582;10.062;2023-04-28T11:16:20;101239.69;;;17.45;33.56
17785;BME280;9016;53.582;10.062;2023-04-28T11:18:57;101236.34;;;17.41;33.51
17785;BME280;9016;53.582;10.062;2023-04-28T11:21:29;101235.53;;;17.52;33.56
17785;BME280;9016;53.582;10.062;2023-04-28T11:23:57;101229.13;;;17.42;33.88
17785;BME280;9016;53.582;10.062;2023-04-28T11:26:27;101232.81;;;17.41;33.65
17785;BME280;9016;53.582;10.062;2023-04-28T11:28:56;101231.59;;;17.45;33.58
17785;BME280;9016;53.582;10.062;2023-04-28T11:31:25;101223.59;;;17.65;33.33
17785;BME280;9016;53.582;10.062;2023-04-28T11:33:59;101221.50;;;17.69;33.04
17785;BME280;9016;53.582;10.062;2023-04-28T11:36:31;101214.19;;;17.60;33.05
17785;BME280;9016;53.582;10.062;2023-04-28T11:39:02;101214.69;;;17.43;33.43
17785;BME280;9016;53.582;10.062;2023-04-28T11:41:36;101210.41;;;17.51;33.47
17785;BME280;9016;53.582;10.062;2023-04-28T11:44:13;101215.59;;;17.86;33.49
17785;BME280;9016;53.582;10.062;2023-04-28T11:46:45;101209.56;;;18.25;33.00
17785;BME280;9016;53.582;10.062;2023-04-28T11:49:17;101211.84;;;18.09;32.91
17785;BME280;9016;53.582;10.062;2023-04-28T11:51:46;101204.25;;;18.03;32.81
17785;BME280;9016;53.582;10.062;2023-04-28T11:54:20;101204.50;;;17.68;32.91
17785;BME280;9016;53.582;10.062;2023-04-28T11:56:50;101202.19;;;17.64;33.64
17785;BME280;9016;53.582;10.062;2023-04-28T11:59:22;101203.19;;;17.63;33.67
17785;BME280;9016;53.582;10.062;2023-04-28T12:01:54;101191.53;;;17.40;34.02
17785;BME280;9016;53.582;10.062;2023-04-28T12:04:26;101188.97;;;17.39;34.18
17785;BME280;9016;53.582;10.062;2023-04-28T12:07:03;101193.88;;;17.45;34.21
17785;BME280;9016;53.582;10.062;2023-04-28T12:09:32;101195.25;;;17.28;34.45
17785;BME280;9016;53.582;10.062;2023-04-28T12:12:03;101193.78;;;17.24;34.51
17785;BME280;9016;53.582;10.062;2023-04-28T12:14:33;101190.47;;;16.99;34.72
17785;BME280;9016;53.582;10.062;2023-04-28T12:17:24;101189.00;;;17.06;34.73
17785;BME280;9016;53.582;10.062;2023-04-28T12:19:53;101188.38;;;17.24;34.76
17785;BME280;9016;53.582;10.062;2023-04-28T12:22:21;101192.91;;;17.13;34.84
17785;BME280;9016;53.582;10.062;2023-04-28T12:25:03;101184.44;;;16.84;35.07
17785;BME280;9016;53.582;10.062;2023-04-28T12:27:34;101181.13;;;16.80;35.20
17785;BME280;9016;53.582;10.062;2023-04-28T12:30:26;101166.59;;;17.05;35.06
17785;BME280;9016;53.582;10.062;2023-04-28T12:32:54;101171.69;;;17.30;34.66
17785;BME280;9016;53.582;10.062;2023-04-28T12:35:23;101165.84;;;17.03;34.94
17785;BME280;9016;53.582;10.062;2023-04-28T12:37:53;101160.13;;;16.97;35.61
17785;BME280;9016;53.582;10.062;2023-04-28T12:40:24;101153.63;;;16.88;35.45
17785;BME280;9016;53.582;10.062;2023-04-28T12:42:54;101154.75;;;16.74;35.72
17785;BME280;9016;53.582;10.062;2023-04-28T12:45:22;101146.03;;;16.60;36.02
17785;BME280;9016;53.582;10.062;2023-04-28T12:47:50;101136.72;;;16.75;35.93
17785;BME280;9016;53.582;10.062;2023-04-28T12:50:19;101148.34;;;16.64;35.86
17785;BME280;9016;53.582;10.062;2023-04-28T12:52:47;101138.06;;;16.58;36.07
17785;BME280;9016;53.582;10.062;2023-04-28T12:55:15;101140.88;;;16.68;36.29
17785;BME280;9016;53.582;10.062;2023-04-28T12:57:43;101129.66;;;16.74;36.02
17785;BME280;9016;53.582;10.062;2023-04-28T13:00:13;101124.13;;;16.87;35.89
17785;BME280;9016;53.582;10.062;2023-04-28T13:02:42;101130.50;;;16.74;36.17
17785;BME280;9016;53.582;10.062;2023-04-28T13:05:11;101134.28;;;16.61;36.20
17785;BME280;9016;53.582;10.062;2023-04-28T13:07:39;101125.13;;;16.86;36.06
17785;BME280;9016;53.582;10.062;2023-04-28T13:10:08;101135.16;;;16.83;36.43
17785;BME280;9016;53.582;10.062;2023-04-28T13:12:36;101124.75;;;16.90;36.15